Time;durP1;ratioP1;P1;durP2;ratioP2;P2;SDS_P1;SDS_P2;PMS_P1;PMS_P2;Temp;Humidity;BMP_temperature;BMP_pressure;BME280_temperature;BME280_humidity;BME280_pressure;Samples;Min_cycle;Max_cycle;Signal;HPM_P1;HPM_P2
2022/07/19 00:00:27;;;;;;;6.60;2.55;;;20.80;81.60;;;;;;5037698;28;20048;-78
2022/07/19 00:02:54;;;;;;;8.85;2.15;;;20.60;81.90;;;;;;5036616;28;20044;-78
2022/07/19 00:05:20;;;;;;;5.35;2.13;;;20.60;82.20;;;;;;5036977;28;20060;-80
2022/07/19 00:07:47;;;;;;;6.18;2.40;;;20.50;80.70;;;;;;5036781;28;20416;-77
2022/07/19 00:10:15;;;;;;;7.75;2.50;;;20.50;81.10;;;;;;5018865;28;20075;-78
2022/07/19 00:12:42;;;;;;;3.45;1.85;;;20.40;80.80;;;;;;5028546;28;20034;-77
2022/07/19 00:15:10;;;;;;;9.30;2.10;;;20.30;80.90;;;;;;5032393;28;20393;-78
2022/07/19 00:17:41;;;;;;;7.55;2.40;;;20.20;80.70;;;;;;5041713;28;20038;-80
2022/07/19 00:20:08;;;;;;;7.82;2.60;;;20.10;80.90;;;;;;5036466;28;20036;-78
2022/07/19 00:22:34;;;;;;;10.30;2.67;;;20.00;81.50;;;;;;5042375;28;20018;-79
2022/07/19 00:25:00;;;;;;;6.55;2.20;;;20.00;81.90;;;;;;5040600;28;20052;-80
2022/07/19 00:27:26;;;;;;;5.50;2.45;;;20.10;81.90;;;;;;5047295;28;20033;-78
2022/07/19 00:29:51;;;;;;;6.93;2.20;;;20.20;81.70;;;;;;5030653;28;20037;-79
2022/07/19 00:32:17;;;;;;;7.65;2.17;;;20.20;81.60;;;;;;5018717;28;20520;-78
2022/07/19 00:34:43;;;;;;;10.70;1.90;;;20.20;81.30;;;;;;5036140;28;20036;-78
2022/07/19 00:37:09;;;;;;;3.85;1.98;;;20.20;81.40;;;;;;5035705;28;20096;-78
2022/07/19 00:39:34;;;;;;;3.33;1.70;;;20.10;81.50;;;;;;5041318;28;20133;-77
2022/07/19 00:42:00;;;;;;;3.05;2.10;;;20.10;81.20;;;;;;5045104;28;20029;-79
2022/07/19 00:44:26;;;;;;;5.90;2.15;;;20.10;81.60;;;;;;5039432;28;20057;-77
2022/07/19 00:46:52;;;;;;;8.50;2.08;;;20.10;81.20;;;;;;5034741;28;20029;-78
2022/07/19 00:49:18;;;;;;;6.57;2.20;;;20.10;81.60;;;;;;5036514;28;20089;-78
2022/07/19 00:51:45;;;;;;;10.40;2.03;;;20.00;81.50;;;;;;5036521;28;20030;-79
2022/07/19 00:54:12;;;;;;;5.38;2.70;;;20.00;81.80;;;;;;5003878;28;20033;-80
2022/07/19 00:56:38;;;;;;;2.60;1.90;;;20.00;82.10;;;;;;5019063;28;20022;-78
2022/07/19 00:59:05;;;;;;;4.35;1.70;;;19.90;82.60;;;;;;5036607;28;20111;-79
2022/07/19 01:01:31;;;;;;;4.47;1.88;;;20.00;82.70;;;;;;5043013;28;20093;-78
2022/07/19 01:03:58;;;;;;;4.30;1.73;;;20.00;82.80;;;;;;5021258;28;20037;-77
2022/07/19 01:06:24;;;;;;;6.75;1.73;;;20.00;82.80;;;;;;5022110;28;20032;-76
2022/07/19 01:08:50;;;;;;;4.18;1.55;;;20.00;82.90;;;;;;5055727;28;20025;-77
2022/07/19 01:11:15;;;;;;;5.30;1.30;;;20.00;82.30;;;;;;5049217;28;20044;-78
2022/07/19 01:13:41;;;;;;;6.35;1.83;;;20.00;82.40;;;;;;5024109;28;20033;-79
2022/07/19 01:16:07;;;;;;;5.32;1.67;;;19.90;83.00;;;;;;5042768;28;20100;-77
2022/07/19 01:18:33;;;;;;;5.43;1.55;;;19.90;83.50;;;;;;5044133;28;20101;-79
2022/07/19 01:21:00;;;;;;;5.30;1.50;;;19.90;83.70;;;;;;5037001;28;20033;-79
2022/07/19 01:23:26;;;;;;;4.82;1.73;;;20.00;84.00;;;;;;5018990;28;20030;-78
2022/07/19 01:25:52;;;;;;;3.08;1.25;;;19.90;84.40;;;;;;5040378;28;20030;-78
2022/07/19 01:28:18;;;;;;;8.65;1.70;;;19.90;84.80;;;;;;5045053;28;20215;-77
2022/07/19 01:30:44;;;;;;;4.63;1.45;;;19.90;85.20;;;;;;5056400;28;20042;-77
2022/07/19 01:33:10;;;;;;;4.90;1.38;;;19.80;86.60;;;;;;5056323;28;20045;-77
2022/07/19 01:35:36;;;;;;;3.90;1.58;;;19.80;86.90;;;;;;5055184;28;20047;-76
2022/07/19 01:38:02;;;;;;;7.80;1.60;;;19.80;87.90;;;;;;5058189;28;20094;-79
2022/07/19 01:40:28;;;;;;;4.93;1.45;;;19.70;88.90;;;;;;5046391;28;20717;-78
2022/07/19 01:42:53;;;;;;;2.80;1.27;;;19.60;90.20;;;;;;5025849;28;20374;-79
2022/07/19 01:45:21;;;;;;;2.72;1.38;;;19.50;90.80;;;;;;5043242;28;20055;-77
2022/07/19 01:47:47;;;;;;;3.03;1.48;;;19.40;91.30;;;;;;5041984;28;20041;-78
2022/07/19 01:50:15;;;;;;;6.55;1.70;;;19.30;91.60;;;;;;5020888;28;20041;-77
2022/07/19 01:52:41;;;;;;;3.53;1.17;;;19.30;92.10;;;;;;5040068;28;20031;-78
2022/07/19 01:55:07;;;;;;;4.68;1.75;;;19.40;92.40;;;;;;5041516;28;20048;-79
2022/07/19 01:57:33;;;;;;;4.10;1.60;;;19.50;92.40;;;;;;5045316;28;20033;-78
2022/07/19 01:59:59;;;;;;;10.10;1.85;;;19.70;92.60;;;;;;5045973;28;20025;-79
2022/07/19 02:02:25;;;;;;;4.78;1.40;;;19.70;92.50;;;;;;5039477;28;20068;-79
2022/07/19 02:04:51;;;;;;;8.15;1.55;;;19.70;92.40;;;;;;5027725;28;20036;-77
2022/07/19 02:07:17;;;;;;;4.72;1.75;;;19.60;92.40;;;;;;5048391;28;20036;-78
2022/07/19 02:09:42;;;;;;;3.88;1.60;;;19.60;92.40;;;;;;5053043;28;20030;-78
2022/07/19 02:12:08;;;;;;;3.03;1.58;;;19.50;92.40;;;;;;5015896;28;20057;-77
2022/07/19 02:14:34;;;;;;;5.15;1.60;;;19.40;92.90;;;;;;5046243;28;20424;-79
2022/07/19 02:17:00;;;;;;;4.50;1.58;;;19.30;93.70;;;;;;5043738;28;20067;-77
2022/07/19 02:19:26;;;;;;;2.05;1.40;;;19.20;94.10;;;;;;5041694;28;20045;-78
2022/07/19 02:21:52;;;;;;;3.53;1.60;;;19.20;94.70;;;;;;5047064;28;20034;-78
2022/07/19 02:24:17;;;;;;;7.65;1.73;;;19.10;95.60;;;;;;5048675;28;20026;-78
2022/07/19 02:26:43;;;;;;;4.20;1.33;;;19.00;96.30;;;;;;5044343;28;20056;-78
2022/07/19 02:29:09;;;;;;;5.85;1.90;;;18.80;97.30;;;;;;5040802;28;20470;-77
2022/07/19 02:31:35;;;;;;;6.88;1.80;;;18.60;98.10;;;;;;5038275;28;20083;-76
2022/07/19 02:34:01;;;;;;;11.20;1.88;;;18.40;98.60;;;;;;5038735;28;20044;-78
2022/07/19 02:36:28;;;;;;;4.88;1.73;;;18.30;99.50;;;;;;5039488;28;20057;-78
2022/07/19 02:38:54;;;;;;;8.65;1.75;;;18.30;99.90;;;;;;5040974;28;20040;-76
2022/07/19 02:41:20;;;;;;;3.58;1.77;;;18.50;99.90;;;;;;5057547;28;20029;-76
2022/07/19 02:43:45;;;;;;;4.75;1.95;;;18.70;99.50;;;;;;5026678;28;20407;-77
2022/07/19 02:46:11;;;;;;;6.15;1.80;;;18.80;99.60;;;;;;5039249;28;20024;-76
2022/07/19 02:48:37;;;;;;;6.35;1.60;;;18.70;99.90;;;;;;5037417;28;20036;-78
2022/07/19 02:51:03;;;;;;;7.10;1.63;;;18.60;99.90;;;;;;5042180;28;20034;-77
2022/07/19 02:53:29;;;;;;;8.32;1.63;;;18.60;99.90;;;;;;5041447;28;20025;-79
2022/07/19 02:55:54;;;;;;;8.65;2.05;;;18.50;99.90;;;;;;5038952;28;20063;-77
2022/07/19 02:58:20;;;;;;;4.40;1.60;;;18.50;99.90;;;;;;5037934;28;20696;-79
2022/07/19 03:00:47;;;;;;;2.67;1.60;;;18.50;99.90;;;;;;5037186;28;20091;-78
2022/07/19 03:05:57;;;;;;;6.25;2.40;;;18.50;99.90;;;;;;5030611;28;20100;-77
2022/07/19 03:08:23;;;;;;;7.28;1.52;;;18.70;99.90;;;;;;5048128;28;20044;-78
2022/07/19 03:10:49;;;;;;;2.83;1.52;;;18.70;99.90;;;;;;5050343;28;20021;-78
2022/07/19 03:13:15;;;;;;;3.45;1.73;;;18.70;99.90;;;;;;5022386;28;20040;-79
2022/07/19 03:15:41;;;;;;;4.18;1.60;;;18.60;99.90;;;;;;5041713;28;20025;-78
2022/07/19 03:18:07;;;;;;;4.85;1.88;;;18.50;99.90;;;;;;5101641;22;20102;-84
2022/07/19 03:20:33;;;;;;;12.48;1.85;;;18.60;99.90;;;;;;5042122;28;20043;-83
2022/07/19 03:22:58;;;;;;;6.25;1.65;;;18.50;99.90;;;;;;5059209;28;20026;-84
2022/07/19 03:25:24;;;;;;;6.95;1.90;;;18.50;99.90;;;;;;5058917;28;20085;-84
2022/07/19 03:27:53;;;;;;;2.72;1.60;;;18.50;99.90;;;;;;5041458;28;20010;-83
2022/07/19 03:30:19;;;;;;;5.35;1.75;;;18.60;99.90;;;;;;5041556;28;20044;-82
2022/07/19 03:32:46;;;;;;;6.43;1.80;;;18.60;99.90;;;;;;5041773;28;20069;-82
2022/07/19 03:35:12;;;;;;;6.75;1.92;;;18.60;99.90;;;;;;5059070;28;20006;-83
2022/07/19 03:37:38;;;;;;;6.18;2.00;;;18.50;99.90;;;;;;5058802;28;20014;-83
2022/07/19 03:40:05;;;;;;;8.18;1.80;;;18.40;99.90;;;;;;5058867;28;20022;-83
2022/07/19 03:42:31;;;;;;;4.05;1.88;;;18.30;99.90;;;;;;5057823;28;20039;-86
2022/07/19 03:44:57;;;;;;;3.88;1.63;;;18.30;99.90;;;;;;5040993;28;20022;-86
2022/07/19 03:47:23;;;;;;;6.60;2.13;;;18.20;99.90;;;;;;5041426;28;20041;-82
2022/07/19 03:49:49;;;;;;;6.05;2.20;;;18.20;99.90;;;;;;5058426;28;20040;-85
2022/07/19 03:52:15;;;;;;;7.18;2.20;;;18.20;99.90;;;;;;5041856;28;20097;-84
2022/07/19 03:54:40;;;;;;;5.53;1.70;;;18.10;99.90;;;;;;5058747;28;20017;-83
2022/07/19 03:57:06;;;;;;;5.88;1.92;;;18.20;99.90;;;;;;5041312;28;20053;-84
2022/07/19 03:59:32;;;;;;;7.22;2.10;;;18.10;99.90;;;;;;5053182;28;20038;-87
2022/07/19 04:02:00;;;;;;;13.10;2.17;;;18.10;99.90;;;;;;5052095;28;20084;-86
2022/07/19 04:04:26;;;;;;;3.92;1.52;;;18.10;99.90;;;;;;5057624;28;20033;-87
2022/07/19 04:06:52;;;;;;;5.13;2.25;;;18.10;99.90;;;;;;5058020;28;20052;-84
2022/07/19 04:09:18;;;;;;;6.65;1.98;;;18.10;99.90;;;;;;5057262;28;20039;-85
2022/07/19 04:11:44;;;;;;;6.95;2.45;;;18.20;99.90;;;;;;5040452;28;20027;-86
2022/07/19 04:14:09;;;;;;;6.13;1.90;;;18.20;99.90;;;;;;5057693;28;20013;-85
2022/07/19 04:16:35;;;;;;;7.80;2.33;;;18.20;99.90;;;;;;5054959;28;20018;-84
2022/07/19 04:19:01;;;;;;;5.53;2.15;;;18.30;99.90;;;;;;5027788;28;20575;-85
2022/07/19 04:21:27;;;;;;;7.25;2.25;;;18.30;99.90;;;;;;5022536;28;20021;-86
2022/07/19 04:23:53;;;;;;;5.32;2.15;;;18.40;99.90;;;;;;5042324;28;20037;-87
2022/07/19 04:26:19;;;;;;;5.78;1.85;;;18.50;99.90;;;;;;5027533;28;20036;-86
2022/07/19 04:28:45;;;;;;;7.50;1.98;;;18.50;99.90;;;;;;5046318;28;20018;-85
2022/07/19 04:31:11;;;;;;;4.68;2.13;;;18.60;99.90;;;;;;5048580;28;20026;-85
2022/07/19 04:33:37;;;;;;;7.75;2.42;;;18.60;99.90;;;;;;5052848;28;20083;-87
2022/07/19 04:36:03;;;;;;;6.50;2.10;;;18.70;99.90;;;;;;5053764;28;20028;-86
2022/07/19 04:38:29;;;;;;;7.43;2.58;;;18.70;99.90;;;;;;5051262;28;20036;-85
2022/07/19 04:40:54;;;;;;;19.75;2.50;;;18.70;99.90;;;;;;5036067;28;20108;-85
2022/07/19 04:43:20;;;;;;;7.70;2.08;;;18.70;99.90;;;;;;5057564;28;20069;-86
2022/07/19 04:45:46;;;;;;;4.95;2.13;;;18.80;99.90;;;;;;5058361;28;20010;-84
2022/07/19 04:48:13;;;;;;;3.35;2.20;;;19.00;99.90;;;;;;5057666;28;20059;-84
2022/07/19 04:50:40;;;;;;;8.38;2.45;;;19.40;99.90;;;;;;5057782;28;20018;-85
2022/07/19 04:53:07;;;;;;;7.30;2.35;;;19.70;99.90;;;;;;5057634;28;20018;-83
2022/07/19 04:55:32;;;;;;;8.38;1.70;;;19.80;99.90;;;;;;5040234;28;20014;-84
2022/07/19 04:57:58;;;;;;;5.72;2.47;;;19.90;99.90;;;;;;5039455;28;20052;-84
2022/07/19 05:00:24;;;;;;;5.60;2.10;;;19.90;99.90;;;;;;5041095;28;20029;-85
2022/07/19 05:02:52;;;;;;;4.70;2.30;;;20.00;99.90;;;;;;5041007;28;20044;-83
2022/07/19 05:05:18;;;;;;;13.40;2.47;;;20.10;99.90;;;;;;5058037;28;20057;-84
2022/07/19 05:07:44;;;;;;;12.10;2.20;;;20.10;99.90;;;;;;5057705;28;20013;-83
2022/07/19 05:10:11;;;;;;;9.75;2.30;;;20.20;99.90;;;;;;5040871;28;20033;-85
2022/07/19 05:12:37;;;;;;;10.65;2.42;;;20.30;99.90;;;;;;5060677;28;20026;-83
2022/07/19 05:15:05;;;;;;;13.30;2.78;;;20.30;99.90;;;;;;5061411;28;20017;-84
2022/07/19 05:17:31;;;;;;;8.73;2.25;;;20.60;99.90;;;;;;5040545;28;20017;-85
2022/07/19 05:19:57;;;;;;;10.05;2.50;;;20.90;99.90;;;;;;5054677;28;20026;-86
2022/07/19 05:22:24;;;;;;;19.05;3.05;;;21.10;99.90;;;;;;5039962;28;20044;-85
2022/07/19 05:24:52;;;;;;;30.80;4.20;;;21.20;99.20;;;;;;5054047;28;20211;-86
2022/07/19 05:27:18;;;;;;;27.70;4.68;;;21.30;98.90;;;;;;5038636;28;20045;-84
2022/07/19 05:29:44;;;;;;;12.90;3.45;;;21.40;98.40;;;;;;5043159;28;20040;-83
2022/07/19 05:32:10;;;;;;;11.20;3.00;;;21.50;98.50;;;;;;5060865;28;20022;-84
2022/07/19 05:34:36;;;;;;;19.48;3.03;;;21.50;99.00;;;;;;5057613;28;20029;-85
2022/07/19 05:37:02;;;;;;;19.92;3.60;;;21.50;98.80;;;;;;5053008;28;20029;-85
2022/07/19 05:39:28;;;;;;;13.80;2.70;;;21.60;98.50;;;;;;5039594;28;20022;-84
2022/07/19 05:41:54;;;;;;;9.60;3.15;;;21.90;98.20;;;;;;5056110;28;20469;-86
2022/07/19 05:44:20;;;;;;;13.70;2.70;;;22.10;97.60;;;;;;5052449;28;20052;-86
2022/07/19 05:46:46;;;;;;;10.50;3.28;;;22.50;96.90;;;;;;5052809;28;20098;-87
2022/07/19 05:49:12;;;;;;;18.15;4.32;;;22.90;95.50;;;;;;5052842;28;20032;-87
2022/07/19 05:51:38;;;;;;;17.45;3.63;;;23.00;94.90;;;;;;5054892;28;20037;-86
2022/07/19 05:54:05;;;;;;;18.40;3.28;;;23.10;94.40;;;;;;5054140;28;20018;-86
2022/07/19 05:56:31;;;;;;;10.27;3.08;;;23.20;94.10;;;;;;5035283;28;20029;-84
2022/07/19 05:58:57;;;;;;;13.05;3.28;;;23.20;94.60;;;;;;5036536;28;20037;-86
2022/07/19 06:01:23;;;;;;;14.80;2.80;;;23.20;94.50;;;;;;5054311;28;20516;-87
2022/07/19 06:03:55;;;;;;;11.07;3.05;;;23.30;94.60;;;;;;5038133;28;20013;-85
2022/07/19 06:06:23;;;;;;;9.65;3.42;;;23.10;94.60;;;;;;5052707;28;20053;-85
2022/07/19 06:08:49;;;;;;;8.88;2.50;;;23.10;94.70;;;;;;5046910;28;20074;-85
2022/07/19 06:11:16;;;;;;;12.75;3.08;;;23.20;94.40;;;;;;5040288;28;20036;-86
2022/07/19 06:13:43;;;;;;;14.82;3.08;;;23.40;94.20;;;;;;5041761;28;20025;-84
2022/07/19 06:16:10;;;;;;;6.10;3.20;;;23.50;93.80;;;;;;5041794;28;20038;-87
2022/07/19 06:18:36;;;;;;;13.10;5.43;;;23.70;93.40;;;;;;5043458;28;20124;-86
2022/07/19 06:21:10;;;;;;;18.45;3.63;;;23.90;93.00;;;;;;5046213;28;20033;-87
2022/07/19 06:23:37;;;;;;;9.17;3.47;;;24.00;93.50;;;;;;5044974;28;20037;-86
2022/07/19 06:26:04;;;;;;;12.43;3.10;;;24.00;93.30;;;;;;5050498;28;20036;-87
2022/07/19 06:28:30;;;;;;;7.53;3.03;;;24.00;93.30;;;;;;5054135;28;20037;-87
2022/07/19 06:30:56;;;;;;;6.72;2.72;;;24.10;92.90;;;;;;5051834;28;20362;-85
2022/07/19 06:33:22;;;;;;;9.68;2.85;;;24.20;92.40;;;;;;5051878;28;20032;-86
2022/07/19 06:35:49;;;;;;;6.07;2.20;;;24.30;92.40;;;;;;5041756;28;20021;-86
2022/07/19 06:38:15;;;;;;;10.13;2.67;;;24.40;92.20;;;;;;5059268;28;20017;-85
2022/07/19 06:40:41;;;;;;;6.97;3.10;;;24.40;92.10;;;;;;5059603;28;20043;-85
2022/07/19 06:43:07;;;;;;;9.35;2.95;;;24.40;92.00;;;;;;5056500;28;20223;-87
2022/07/19 06:45:33;;;;;;;9.50;3.10;;;24.50;91.80;;;;;;5038305;28;20049;-85
2022/07/19 06:47:59;;;;;;;10.38;2.78;;;24.60;91.60;;;;;;5055227;28;20014;-84
2022/07/19 06:50:25;;;;;;;7.90;2.45;;;24.60;91.30;;;;;;5038462;28;20017;-84
2022/07/19 06:52:51;;;;;;;7.60;3.33;;;24.70;91.30;;;;;;5055225;28;20035;-83
2022/07/19 06:55:17;;;;;;;12.20;2.90;;;24.70;90.50;;;;;;5047831;28;20045;-86
2022/07/19 06:57:43;;;;;;;7.45;2.90;;;24.70;90.60;;;;;;5022183;28;20034;-87
2022/07/19 07:00:13;;;;;;;8.68;2.80;;;24.60;90.90;;;;;;5022204;28;20045;-86
2022/07/19 07:02:40;;;;;;;14.43;3.92;;;24.80;90.40;;;;;;5019124;28;20078;-88
2022/07/19 07:05:07;;;;;;;5.43;2.72;;;24.80;90.20;;;;;;5037920;28;20026;-88
2022/07/19 07:07:33;;;;;;;13.52;3.17;;;25.00;90.20;;;;;;5038134;28;20033;-84
2022/07/19 07:10:01;;;;;;;10.93;3.80;;;25.00;89.60;;;;;;5038934;28;20097;-87
2022/07/19 07:12:28;;;;;;;8.00;2.72;;;25.20;88.80;;;;;;5039207;28;20076;-86
2022/07/19 07:14:55;;;;;;;7.93;2.60;;;25.30;88.80;;;;;;5022128;28;20014;-88
2022/07/19 07:17:21;;;;;;;12.77;2.90;;;25.30;88.40;;;;;;5018137;28;20476;-89
2022/07/19 07:19:47;;;;;;;6.80;2.38;;;25.40;88.00;;;;;;5039377;28;20029;-86
2022/07/19 07:22:13;;;;;;;13.40;2.85;;;25.50;87.60;;;;;;5044169;28;20064;-87
2022/07/19 07:24:39;;;;;;;7.43;2.85;;;25.60;87.20;;;;;;5050514;28;20018;-88
2022/07/19 07:27:05;;;;;;;7.72;3.05;;;25.70;85.30;;;;;;5054312;28;20016;-89
2022/07/19 07:29:31;;;;;;;9.60;2.70;;;25.90;85.30;;;;;;5041025;28;20092;-89
2022/07/19 07:31:57;;;;;;;12.00;2.78;;;25.80;85.10;;;;;;5041457;28;20076;-89
2022/07/19 07:34:23;;;;;;;8.80;2.92;;;25.80;84.50;;;;;;5041719;28;20026;-89
2022/07/19 07:36:49;;;;;;;10.27;2.97;;;25.80;83.90;;;;;;5041549;28;20052;-88
2022/07/19 07:39:15;;;;;;;9.68;2.78;;;26.00;84.30;;;;;;5041280;28;20013;-90
2022/07/19 07:41:42;;;;;;;11.98;2.78;;;25.90;82.30;;;;;;5040972;28;20033;-88
2022/07/19 07:44:08;;;;;;;13.15;3.03;;;26.00;82.40;;;;;;5040712;28;20022;-89
2022/07/19 07:46:34;;;;;;;14.45;2.63;;;26.00;82.50;;;;;;5038509;28;20060;-88
2022/07/19 07:49:00;;;;;;;13.43;2.85;;;26.00;82.20;;;;;;5035603;28;20059;-91
2022/07/19 07:51:26;;;;;;;9.77;2.30;;;25.90;82.30;;;;;;5017901;28;20040;-90
2022/07/19 07:53:52;;;;;;;15.57;2.75;;;25.90;82.00;;;;;;5034502;28;20017;-90
2022/07/19 07:56:18;;;;;;;6.03;2.22;;;25.90;82.30;;;;;;5034829;28;20022;-88
2022/07/19 07:58:44;;;;;;;5.43;2.55;;;26.20;81.50;;;;;;5021464;28;20024;-89
2022/07/19 08:01:09;;;;;;;11.57;2.42;;;26.30;81.10;;;;;;5043656;28;20093;-89
2022/07/19 08:03:35;;;;;;;5.82;2.20;;;26.40;80.30;;;;;;5042725;28;20036;-89
2022/07/19 08:06:01;;;;;;;6.97;2.35;;;26.40;80.10;;;;;;5017163;28;20030;-89
2022/07/19 08:08:27;;;;;;;16.10;2.50;;;26.50;79.20;;;;;;5051963;28;20052;-89
2022/07/19 08:10:54;;;;;;;7.13;2.25;;;26.50;79.60;;;;;;5051324;28;20033;-87
2022/07/19 08:13:31;;;;;;;9.15;2.22;;;26.70;79.60;;;;;;5032016;28;20513;-89
2022/07/19 08:15:57;;;;;;;6.47;2.00;;;26.70;79.20;;;;;;5034087;28;20112;-90
2022/07/19 08:18:22;;;;;;;7.13;2.28;;;26.70;78.90;;;;;;5017683;28;20144;-88
2022/07/19 08:20:48;;;;;;;5.38;2.10;;;26.70;78.40;;;;;;5050702;28;20097;-88
2022/07/19 08:23:14;;;;;;;8.45;2.28;;;26.80;76.20;;;;;;5033351;28;20032;-89
2022/07/19 08:25:40;;;;;;;10.20;2.45;;;26.70;75.90;;;;;;5049080;28;20020;-90
2022/07/19 08:28:06;;;;;;;14.10;2.72;;;26.80;75.70;;;;;;5020851;28;20251;-91
2022/07/19 08:30:32;;;;;;;9.13;2.63;;;26.90;76.00;;;;;;5039652;28;20029;-87
2022/07/19 08:32:58;;;;;;;8.27;2.17;;;27.20;76.30;;;;;;5039910;28;20017;-89
2022/07/19 08:35:24;;;;;;;3.70;1.83;;;27.30;74.20;;;;;;5057095;28;20064;-88
2022/07/19 08:37:50;;;;;;;5.07;2.08;;;27.50;73.70;;;;;;5040090;28;20020;-88
2022/07/19 08:40:15;;;;;;;10.45;2.25;;;27.60;73.40;;;;;;5057264;28;20037;-89
2022/07/19 08:42:42;;;;;;;8.05;2.25;;;27.70;73.60;;;;;;5057539;28;20048;-91
2022/07/19 08:45:10;;;;;;;10.85;2.17;;;27.60;74.20;;;;;;5057025;28;20018;-87
2022/07/19 08:47:37;;;;;;;7.60;2.20;;;27.50;74.70;;;;;;5039695;28;20017;-89
2022/07/19 08:50:05;;;;;;;8.40;2.08;;;27.50;73.20;;;;;;5039885;28;20097;-89
2022/07/19 08:52:35;;;;;;;7.15;2.30;;;27.60;73.40;;;;;;5040231;28;20093;-88
2022/07/19 08:55:02;;;;;;;8.90;2.25;;;27.70;73.10;;;;;;5054155;28;20014;-89
2022/07/19 09:00:14;;;;;;;10.20;2.30;;;27.80;71.90;;;;;;5053575;28;20185;-89
2022/07/19 09:02:40;;;;;;;6.25;2.38;;;28.00;72.00;;;;;;5034336;28;20018;-89
2022/07/19 09:05:09;;;;;;;7.53;2.75;;;28.10;72.30;;;;;;5045453;28;20030;-89
2022/07/19 09:07:39;;;;;;;6.53;2.35;;;28.00;71.70;;;;;;5034029;28;20026;-88
2022/07/19 09:10:19;;;;;;;7.70;2.33;;;28.00;71.40;;;;;;5051162;28;20026;-89
2022/07/19 09:13:08;;;;;;;7.72;1.80;;;28.00;70.50;;;;;;5035866;28;20025;-89
2022/07/19 09:15:53;;;;;;;8.50;2.17;;;28.20;68.70;;;;;;5051898;28;20026;-88
2022/07/19 09:18:28;;;;;;;3.25;1.60;;;28.30;68.30;;;;;;5066684;23;20045;-84
2022/07/19 09:20:58;;;;;;;7.18;1.95;;;28.20;67.80;;;;;;5019738;28;20069;-83
2022/07/19 09:23:24;;;;;;;9.35;2.00;;;28.30;68.10;;;;;;5021517;28;20057;-84
2022/07/19 09:25:56;;;;;;;7.10;1.90;;;28.30;67.50;;;;;;5019690;28;20033;-84
2022/07/19 09:28:24;;;;;;;7.78;1.80;;;28.30;67.40;;;;;;5021324;28;20490;-84
2022/07/19 09:30:52;;;;;;;11.90;1.75;;;28.40;66.60;;;;;;5020828;28;20037;-83
2022/07/19 09:33:20;;;;;;;8.73;2.15;;;28.50;65.70;;;;;;5024883;28;20022;-82
2022/07/19 09:35:58;;;;;;;14.75;2.38;;;28.40;66.20;;;;;;5025765;28;20037;-84
2022/07/19 09:38:36;;;;;;;9.73;1.95;;;28.40;66.10;;;;;;5025524;28;20065;-83
2022/07/19 09:41:13;;;;;;;6.63;2.03;;;28.40;66.20;;;;;;5029565;28;20202;-83
2022/07/19 09:43:58;;;;;;;5.88;1.67;;;28.70;66.80;;;;;;5029246;28;20098;-83
2022/07/19 09:46:28;;;;;;;7.03;1.90;;;29.00;65.10;;;;;;5026231;28;20041;-82
2022/07/19 09:48:54;;;;;;;4.25;1.38;;;29.60;63.80;;;;;;5015021;28;20041;-84
2022/07/19 09:51:21;;;;;;;8.48;1.60;;;30.00;61.50;;;;;;5013837;28;20026;-84
2022/07/19 09:53:48;;;;;;;5.25;1.50;;;30.60;60.20;;;;;;5012185;28;20022;-85
2022/07/19 09:56:16;;;;;;;3.78;1.33;;;31.50;58.30;;;;;;5015786;28;20031;-84
2022/07/19 09:58:42;;;;;;;3.45;1.60;;;32.50;56.40;;;;;;5013964;28;20077;-85
2022/07/19 10:01:10;;;;;;;5.93;1.98;;;33.10;55.40;;;;;;5011822;28;20034;-84
2022/07/19 10:03:36;;;;;;;7.03;1.70;;;32.80;55.30;;;;;;5009826;28;20054;-83
2022/07/19 10:06:02;;;;;;;2.75;1.65;;;33.20;55.60;;;;;;5008227;28;20040;-84
2022/07/19 10:08:28;;;;;;;2.65;1.40;;;33.70;54.30;;;;;;5014726;28;20026;-83
2022/07/19 10:10:54;;;;;;;6.05;1.92;;;34.70;52.30;;;;;;5019233;28;20093;-85
2022/07/19 10:13:20;;;;;;;5.50;2.22;;;34.80;52.30;;;;;;5019666;28;20019;-85
2022/07/19 10:15:51;;;;;;;4.80;1.60;;;35.40;51.70;;;;;;5019982;28;20049;-82
2022/07/19 10:18:24;;;;;;;4.68;3.30;;;36.90;49.70;;;;;;5018755;28;20049;-83
2022/07/19 10:20:50;;;;;;;5.90;3.35;;;37.80;48.70;;;;;;5019214;28;20098;-84
2022/07/19 10:23:27;;;;;;;6.40;3.55;;;37.60;47.60;;;;;;5006389;28;20026;-84
2022/07/19 10:25:53;;;;;;;7.93;2.00;;;37.70;47.60;;;;;;5010681;28;20117;-84
2022/07/19 10:28:35;;;;;;;5.65;2.25;;;38.60;46.20;;;;;;5013054;28;20026;-84
2022/07/19 10:31:01;;;;;;;11.20;2.60;;;39.60;45.30;;;;;;5009772;28;20022;-84
2022/07/19 10:33:37;;;;;;;8.93;3.65;;;40.70;44.20;;;;;;5008978;28;20018;-84
2022/07/19 10:36:32;;;;;;;4.45;1.83;;;41.30;43.30;;;;;;5009542;28;20132;-84
2022/07/19 10:39:21;;;;;;;3.50;1.35;;;41.30;42.90;;;;;;5013572;28;20026;-84
2022/07/19 10:42:05;;;;;;;4.25;1.50;;;42.60;41.90;;;;;;5007776;28;20107;-84
2022/07/19 10:44:32;;;;;;;4.65;3.33;;;44.30;40.70;;;;;;5013905;28;20033;-84
2022/07/19 10:46:57;;;;;;;3.97;1.70;;;44.70;39.90;;;;;;5017211;28;20022;-84
2022/07/19 10:49:45;;;;;;;4.47;1.30;;;44.50;39.60;;;;;;5012122;28;20026;-84
2022/07/19 10:52:33;;;;;;;2.55;1.58;;;45.10;38.90;;;;;;5015624;28;20030;-84
2022/07/19 10:55:18;;;;;;;5.78;1.55;;;46.50;38.20;;;;;;5014608;28;20724;-84
2022/07/19 10:57:49;;;;;;;2.53;1.80;;;47.10;37.50;;;;;;5015811;28;20070;-83
2022/07/19 11:00:29;;;;;;;7.60;1.70;;;47.80;37.30;;;;;;5014969;28;20099;-84
2022/07/19 11:03:23;;;;;;;4.18;1.60;;;48.50;36.30;;;;;;5012794;28;20026;-83
2022/07/19 11:05:51;;;;;;;2.78;1.23;;;49.10;35.80;;;;;;5013979;28;20018;-83
2022/07/19 11:08:17;;;;;;;6.18;1.70;;;49.30;35.40;;;;;;5016686;28;20018;-83
2022/07/19 11:10:43;;;;;;;10.13;1.65;;;49.10;35.30;;;;;;5019417;28;20338;-84
2022/07/19 11:13:09;;;;;;;8.38;1.83;;;49.00;35.10;;;;;;5020073;28;20056;-83
2022/07/19 11:15:35;;;;;;;4.05;1.65;;;49.00;34.80;;;;;;5023174;28;20033;-82
2022/07/19 11:18:05;;;;;;;5.80;1.42;;;49.00;34.50;;;;;;5027463;28;20032;-84
2022/07/19 11:20:34;;;;;;;5.88;1.60;;;49.40;34.00;;;;;;5026932;28;20072;-83
2022/07/19 11:23:01;;;;;;;4.32;2.45;;;48.80;33.90;;;;;;5026036;28;20026;-84
2022/07/19 11:25:35;;;;;;;6.55;2.08;;;48.10;34.30;;;;;;5024176;28;20033;-83
2022/07/19 11:28:02;;;;;;;2.58;1.75;;;47.20;34.40;;;;;;5023445;28;20053;-82
2022/07/19 11:30:30;;;;;;;2.88;2.00;;;48.00;34.50;;;;;;5022812;28;20030;-84
2022/07/19 11:33:04;;;;;;;3.38;1.60;;;47.90;34.40;;;;;;5022825;28;20026;-83
2022/07/19 11:35:30;;;;;;;4.20;1.75;;;47.80;34.40;;;;;;5031609;28;20022;-83
2022/07/19 11:37:58;;;;;;;4.07;1.83;;;48.20;34.30;;;;;;5029599;28;20029;-84
2022/07/19 11:40:31;;;;;;;3.60;1.65;;;48.30;34.10;;;;;;5031602;28;20045;-82
2022/07/19 11:42:57;;;;;;;3.92;1.80;;;48.40;34.00;;;;;;5032708;28;20090;-83
2022/07/19 11:45:25;;;;;;;2.28;1.60;;;49.30;33.60;;;;;;5031391;28;20018;-84
2022/07/19 11:47:55;;;;;;;2.97;1.77;;;50.10;33.00;;;;;;5031132;28;20030;-84
2022/07/19 11:50:24;;;;;;;3.75;1.90;;;49.90;32.70;;;;;;5032008;28;20018;-84
2022/07/19 11:52:56;;;;;;;4.30;2.03;;;49.00;32.90;;;;;;5032212;28;20096;-83
2022/07/19 11:55:24;;;;;;;3.80;1.63;;;49.40;33.00;;;;;;5032383;28;20045;-83
2022/07/19 11:57:50;;;;;;;4.07;2.10;;;49.10;33.20;;;;;;5032006;28;20034;-84
2022/07/19 12:00:17;;;;;;;2.00;1.77;;;48.50;33.40;;;;;;5031944;28;20037;-82
2022/07/19 12:02:51;;;;;;;4.57;2.17;;;48.40;33.20;;;;;;5031425;28;20017;-83
2022/07/19 12:05:17;;;;;;;5.20;2.40;;;48.40;33.30;;;;;;5033815;28;20064;-84
2022/07/19 12:07:48;;;;;;;8.57;2.22;;;47.80;33.80;;;;;;5034302;28;20024;-84
2022/07/19 12:10:36;;;;;;;3.58;2.58;;;48.50;33.90;;;;;;5033550;28;20041;-82
2022/07/19 12:13:03;;;;;;;7.45;2.13;;;48.80;33.90;;;;;;5033488;28;20468;-84
2022/07/19 12:15:46;;;;;;;5.32;3.05;;;49.00;34.00;;;;;;5033422;28;20056;-83
2022/07/19 12:18:12;;;;;;;;;;;48.50;33.90;;;;;;5035857;28;20034;-84
2022/07/19 12:20:38;;;;;;;4.68;2.03;;;47.60;34.30;;;;;;5030810;28;19955;-82
2022/07/19 12:23:23;;;;;;;4.65;1.75;;;47.40;34.50;;;;;;5032449;28;20046;-84
2022/07/19 12:25:49;;;;;;;5.32;2.30;;;47.80;34.10;;;;;;5033476;28;20034;-82
2022/07/19 12:28:15;;;;;;;4.93;3.30;;;47.40;34.40;;;;;;5032168;28;20033;-83
2022/07/19 12:30:41;;;;;;;6.38;3.42;;;46.60;34.70;;;;;;5032024;28;20078;-83
2022/07/19 12:33:11;;;;;;;3.35;2.50;;;46.00;35.10;;;;;;5041476;28;20018;-83
2022/07/19 12:35:46;;;;;;;6.85;1.92;;;46.20;35.20;;;;;;5024112;28;20501;-83
2022/07/19 12:38:13;;;;;;;8.45;1.98;;;46.90;35.00;;;;;;5025441;28;20030;-84
2022/07/19 12:40:41;;;;;;;5.97;2.83;;;47.30;34.60;;;;;;5022355;28;20030;-84
2022/07/19 12:43:11;;;;;;;3.00;1.73;;;47.50;34.30;;;;;;5024654;28;20034;-83
2022/07/19 12:45:46;;;;;;;6.50;2.20;;;47.80;34.00;;;;;;5033439;28;20052;-84
2022/07/19 12:48:14;;;;;;;7.13;1.73;;;48.80;33.20;;;;;;5029501;28;20034;-84
2022/07/19 12:50:46;;;;;;;3.10;1.65;;;48.70;33.60;;;;;;5024223;28;20026;-84
2022/07/19 12:53:16;;;;;;;2.78;1.90;;;48.80;33.80;;;;;;5021981;28;20092;-83